Time;durP1;ratioP1;P1;durP2;ratioP2;P2;SDS_P1;SDS_P2;PMS_P1;PMS_P2;Temp;Humidity;BMP_temperature;BMP_pressure;BME280_temperature;BME280_humidity;BME280_pressure;Samples;Min_cycle;Max_cycle;Signal;HPM_P1;HPM_P2
2021/12/25 00:02:15;;;;;;;1.92;1.42;;;;;;;13.34;56.91;94246.41;5031210;28;20029;-61
2021/12/25 00:04:41;;;;;;;3.85;1.70;;;;;;;13.21;57.55;94256.41;5030647;28;20530;-61
2021/12/25 00:07:06;;;;;;;3.10;2.05;;;;;;;12.68;59.00;94261.00;5049997;28;20049;-65
2021/12/25 00:09:31;;;;;;;2.10;1.90;;;;;;;12.68;59.20;94257.56;5047873;28;20021;-65
2021/12/25 00:11:57;;;;;;;2.25;1.95;;;;;;;12.82;59.02;94249.97;5031687;28;20066;-64
2021/12/25 00:14:22;;;;;;;3.33;1.90;;;;;;;12.49;60.13;94256.28;5052945;28;20028;-64
2021/12/25 00:16:48;;;;;;;3.03;1.90;;;;;;;12.45;60.38;94267.97;5052826;28;20025;-64
2021/12/25 00:19:14;;;;;;;2.60;2.30;;;;;;;12.58;60.76;94260.69;5051637;28;20553;-64
2021/12/25 00:21:40;;;;;;;2.42;1.83;;;;;;;12.48;60.16;94252.03;5052355;28;20035;-64
2021/12/25 00:24:05;;;;;;;2.35;2.15;;;;;;;12.14;61.05;94253.34;5052635;28;20394;-64
2021/12/25 00:26:57;;;;;;;2.00;1.85;;;;;;;12.44;60.37;94221.84;5052742;28;20637;-64
2021/12/25 00:31:56;;;;;;;2.40;1.67;;;;;;;12.48;60.77;94245.94;5052348;28;20577;-64
2021/12/25 00:34:23;;;;;;;2.35;1.85;;;;;;;12.72;59.60;94223.75;5052161;28;20025;-64
2021/12/25 00:36:50;;;;;;;1.90;1.70;;;;;;;12.83;58.87;94254.19;5051923;28;20056;-64
2021/12/25 00:39:15;;;;;;;1.95;1.83;;;;;;;12.25;60.58;94243.00;5051667;28;20021;-64
2021/12/25 00:41:41;;;;;;;3.08;2.10;;;;;;;12.93;59.84;94245.69;5052101;28;20028;-64
2021/12/25 00:44:06;;;;;;;3.08;2.28;;;;;;;13.09;58.98;94232.38;5034384;28;20037;-64
2021/12/25 00:46:32;;;;;;;2.38;2.05;;;;;;;13.49;57.11;94242.97;5052259;28;20029;-64
2021/12/25 00:48:57;;;;;;;1.65;1.55;;;;;;;13.71;56.97;94236.25;5051145;28;20029;-64
2021/12/25 00:51:23;;;;;;;2.00;1.73;;;;;;;14.02;56.55;94235.50;5051809;28;20228;-64
2021/12/25 00:53:48;;;;;;;3.00;2.10;;;;;;;14.34;55.59;94234.66;5052913;28;20033;-64
2021/12/25 00:56:14;;;;;;;2.42;2.08;;;;;;;14.46;55.25;94221.91;5051959;28;20051;-64
2021/12/25 00:58:39;;;;;;;2.35;1.77;;;;;;;14.61;54.78;94233.72;5051588;28;20032;-64
2021/12/25 01:01:05;;;;;;;2.35;1.70;;;;;;;14.71;54.06;94243.88;5033497;28;20079;-65
2021/12/25 01:03:30;;;;;;;1.58;1.48;;;;;;;14.69;53.87;94218.56;5051767;28;20471;-64
2021/12/25 01:05:56;;;;;;;2.38;1.77;;;;;;;14.66;53.62;94203.22;5016725;28;20487;-64
2021/12/25 01:08:21;;;;;;;1.98;1.85;;;;;;;14.83;53.33;94211.59;5051038;28;20021;-64
2021/12/25 01:10:47;;;;;;;3.25;1.67;;;;;;;14.99;53.38;94235.63;5051249;28;20382;-64
2021/12/25 01:13:20;;;;;;;2.55;1.65;;;;;;;15.05;53.39;94238.81;5051685;28;20502;-64
2021/12/25 01:16:01;;;;;;;1.90;1.70;;;;;;;15.13;52.81;94245.84;5051507;28;20025;-69
2021/12/25 01:31:24;;;;;;;2.30;2.10;;;;;;;15.04;52.50;94232.66;5051329;28;20021;-64
2021/12/25 01:39:06;;;;;;;2.20;1.67;;;;;;;15.09;52.04;94216.28;5050673;28;20047;-64
2021/12/25 01:49:33;;;;;;;3.30;1.73;;;;;;;15.30;51.91;94209.78;5049668;28;20028;-64
2021/12/25 01:51:58;;;;;;;2.15;1.95;;;;;;;15.36;51.90;94219.09;5050330;28;20025;-64
2021/12/25 01:54:24;;;;;;;1.55;1.45;;;;;;;15.07;51.89;94175.72;5050645;28;20029;-64
2021/12/25 01:56:49;;;;;;;1.55;1.45;;;;;;;15.07;51.80;94207.09;5050804;28;20037;-64
2021/12/25 01:59:16;;;;;;;1.63;1.52;;;;;;;15.22;51.74;94219.59;5049846;28;20025;-64
2021/12/25 02:01:42;;;;;;;3.15;1.55;;;;;;;14.95;52.05;94221.41;5050760;28;20108;-64
2021/12/25 02:04:07;;;;;;;1.50;1.35;;;;;;;15.27;51.70;94210.50;5050211;28;20108;-64
2021/12/25 02:06:33;;;;;;;2.63;1.40;;;;;;;15.00;52.22;94197.03;5050664;28;20037;-64
2021/12/25 02:08:59;;;;;;;2.40;1.45;;;;;;;15.18;51.92;94202.69;5050067;28;20479;-64
2021/12/25 02:11:25;;;;;;;1.77;1.27;;;;;;;14.85;52.40;94199.78;5050679;28;20055;-64
2021/12/25 02:13:50;;;;;;;1.10;1.10;;;;;;;14.64;52.47;94173.34;5050472;28;20029;-64
2021/12/25 02:16:19;;;;;;;1.17;0.98;;;;;;;14.91;51.80;94183.06;5050377;28;20025;-64
2021/12/25 02:19:09;;;;;;;0.65;0.63;;;;;;;14.86;51.55;94204.00;5049977;28;20040;-64
2021/12/25 02:21:39;;;;;;;1.30;1.20;;;;;;;15.12;51.68;94192.63;5049807;28;20383;-64
2021/12/25 02:24:12;;;;;;;0.75;0.75;;;;;;;14.91;51.62;94164.34;5042270;28;20057;-64
2021/12/25 02:26:40;;;;;;;1.95;0.98;;;;;;;15.14;51.26;94198.41;5050042;28;20052;-64
2021/12/25 02:29:06;;;;;;;0.98;0.90;;;;;;;15.22;51.70;94192.81;5049284;28;20040;-64
2021/12/25 02:31:32;;;;;;;1.15;0.73;;;;;;;15.23;51.26;94196.28;5049908;28;20029;-64
2021/12/25 02:33:58;;;;;;;1.25;1.00;;;;;;;14.74;51.54;94196.88;5050100;28;20025;-64
2021/12/25 02:36:23;;;;;;;1.00;1.00;;;;;;;14.91;51.21;94191.09;5048844;28;20433;-64
2021/12/25 02:38:50;;;;;;;1.05;0.95;;;;;;;15.07;51.48;94191.00;5049239;28;20026;-64
2021/12/25 02:41:16;;;;;;;0.98;0.90;;;;;;;14.86;51.44;94201.34;5049567;28;20017;-64
2021/12/25 02:43:44;;;;;;;1.17;0.80;;;;;;;14.45;52.35;94161.50;5049836;28;20025;-65
2021/12/25 02:46:10;;;;;;;0.50;0.50;;;;;;;14.38;52.81;94188.09;5032027;28;20037;-64
2021/12/25 02:48:37;;;;;;;1.10;1.00;;;;;;;14.21;53.12;94173.22;5031678;28;20028;-64
2021/12/25 02:51:03;;;;;;;0.60;0.60;;;;;;;13.47;54.98;94167.00;5048764;28;20021;-64
2021/12/25 02:53:29;;;;;;;1.08;0.80;;;;;;;13.44;55.96;94194.38;5049519;28;20538;-64
2021/12/25 02:55:54;;;;;;;0.75;0.60;;;;;;;13.06;56.02;94146.88;5049578;28;20111;-64
2021/12/25 02:58:20;;;;;;;1.33;1.08;;;;;;;12.71;58.03;94190.19;5049371;28;20112;-65
2021/12/25 03:00:55;;;;;;;2.13;1.15;;;;;;;12.75;57.44;94175.06;5049242;28;20025;-64
2021/12/25 03:03:21;;;;;;;1.98;1.27;;;;;;;12.56;58.73;94204.25;5049612;28;20036;-64
2021/12/25 03:05:47;;;;;;;1.02;0.90;;;;;;;12.94;57.79;94191.19;5049010;28;20021;-64
2021/12/25 03:08:14;;;;;;;0.85;0.80;;;;;;;12.77;58.36;94180.06;5031181;28;20027;-64
2021/12/25 03:10:41;;;;;;;1.45;1.35;;;;;;;13.53;55.97;94174.38;5048954;28;20037;-65
2021/12/25 03:15:46;;;;;;;1.83;1.00;;;;;;;12.69;58.27;94187.06;5049828;28;20036;-65
2021/12/25 03:18:32;;;;;;;0.85;0.85;;;;;;;12.80;58.29;94192.72;5031253;28;20028;-65
2021/12/25 03:21:02;;;;;;;2.10;1.00;;;;;;;13.74;56.16;94198.16;5048567;28;20497;-65
2021/12/25 03:23:29;;;;;;;1.63;1.25;;;;;;;13.55;56.01;94200.75;5049109;28;20021;-65
2021/12/25 03:25:56;;;;;;;2.00;1.77;;;;;;;14.12;54.75;94185.25;5030477;28;20033;-65
2021/12/25 03:28:24;;;;;;;2.33;1.33;;;;;;;14.29;54.48;94182.19;5048501;28;20682;-65
2021/12/25 03:30:51;;;;;;;1.27;1.17;;;;;;;13.93;54.25;94184.09;5049185;28;20108;-65
2021/12/25 03:33:19;;;;;;;1.83;1.50;;;;;;;14.35;53.93;94183.47;5049305;28;20502;-65
2021/12/25 03:35:44;;;;;;;1.98;1.50;;;;;;;14.51;53.48;94151.31;5030887;28;20033;-65
2021/12/25 03:38:13;;;;;;;2.05;1.50;;;;;;;14.98;52.73;94185.09;5057038;28;20525;-65
2021/12/25 03:40:39;;;;;;;1.85;1.65;;;;;;;15.16;52.40;94180.09;5048854;28;20021;-65
2021/12/25 03:43:05;;;;;;;1.50;1.40;;;;;;;15.24;52.10;94168.34;5049191;28;20626;-65
2021/12/25 03:45:32;;;;;;;2.47;1.67;;;;;;;15.31;51.31;94171.94;5031479;28;20025;-65
2021/12/25 03:53:37;;;;;;;2.72;1.50;;;;;;;15.46;50.73;94162.22;5047861;28;20051;-65
2021/12/25 03:58:52;;;;;;;1.50;1.40;;;;;;;15.05;50.73;94092.28;5052990;28;20044;-65
2021/12/25 04:01:31;;;;;;;1.52;1.42;;;;;;;15.56;51.04;94152.81;5035246;28;20041;-64
2021/12/25 04:04:11;;;;;;;1.88;1.40;;;;;;;15.42;51.02;94133.81;5053028;28;20426;-65
2021/12/25 04:06:50;;;;;;;2.03;1.30;;;;;;;15.55;50.97;94143.22;5052716;28;20094;-65
2021/12/25 04:09:27;;;;;;;1.77;1.50;;;;;;;15.66;50.71;94146.88;5046496;28;20021;-65
2021/12/25 04:11:58;;;;;;;2.17;1.30;;;;;;;15.55;50.00;94137.84;5052990;28;20029;-64
2021/12/25 04:14:23;;;;;;;1.90;1.38;;;;;;;15.37;50.32;94105.41;5052859;28;20029;-64
2021/12/25 04:16:50;;;;;;;1.27;0.73;;;;;;;15.24;50.05;94114.75;5052877;28;20071;-65
2021/12/25 04:19:16;;;;;;;1.30;1.20;;;;;;;14.80;50.87;94131.25;5052065;28;20027;-64
2021/12/25 04:21:51;;;;;;;4.63;1.75;;;;;;;14.78;51.12;94096.00;5052117;28;20104;-64
2021/12/25 04:24:17;;;;;;;1.70;1.30;;;;;;;14.86;51.47;94147.78;5052585;28;20378;-64
2021/12/25 04:26:44;;;;;;;1.98;1.30;;;;;;;14.76;51.19;94108.97;5052595;28;20113;-64
2021/12/25 04:47:55;;;;;;;1.45;1.35;;;;;;;15.48;50.27;94127.78;5052475;28;20035;-65
2021/12/25 05:02:23;;;;;;;1.70;1.60;;;;;;;15.50;50.12;94106.75;5051879;28;20119;-64
2021/12/25 05:04:54;;;;;;;1.73;1.05;;;;;;;15.34;49.95;94098.09;5051754;28;20123;-64
2021/12/25 05:07:20;;;;;;;1.70;1.60;;;;;;;15.42;49.81;94123.88;5051399;28;20083;-66
2021/12/25 05:09:45;;;;;;;1.80;1.67;;;;;;;15.26;50.10;94102.56;5032839;28;20033;-65
2021/12/25 05:12:10;;;;;;;1.60;1.50;;;;;;;15.12;50.28;94102.34;5033857;28;20033;-65
2021/12/25 05:14:36;;;;;;;1.63;1.52;;;;;;;14.83;49.85;94069.72;5033799;28;20025;-65
2021/12/25 05:17:02;;;;;;;2.67;1.48;;;;;;;15.07;50.41;94108.00;5052085;28;20017;-65
2021/12/25 05:19:27;;;;;;;3.03;1.38;;;;;;;14.95;50.70;94098.22;5050876;28;20100;-65
2021/12/25 05:21:53;;;;;;;1.85;1.58;;;;;;;15.11;50.60;94116.88;5050812;28;20108;-65
2021/12/25 05:24:18;;;;;;;1.40;1.30;;;;;;;14.98;50.13;94113.56;5051352;28;20025;-65
2021/12/25 05:26:44;;;;;;;1.20;0.90;;;;;;;14.25;51.14;94109.13;5051348;28;20079;-65
2021/12/25 05:29:10;;;;;;;3.22;1.15;;;;;;;14.44;51.54;94116.38;5050599;28;20029;-64
2021/12/25 05:31:36;;;;;;;1.20;1.10;;;;;;;14.44;51.16;94117.16;5033605;28;20029;-64
2021/12/25 05:34:03;;;;;;;0.77;0.63;;;;;;;14.18;51.93;94115.13;5051045;28;20028;-64
2021/12/25 05:36:29;;;;;;;2.35;0.82;;;;;;;14.46;51.71;94114.13;5050779;28;20082;-64
2021/12/25 05:38:58;;;;;;;1.02;1.00;;;;;;;14.48;51.11;94098.50;5049111;28;20086;-64
2021/12/25 05:41:28;;;;;;;0.90;0.90;;;;;;;13.53;52.81;94094.25;5051269;28;20029;-64
2021/12/25 05:43:54;;;;;;;1.05;0.88;;;;;;;14.08;51.88;94080.13;5033176;28;20429;-65
2021/12/25 05:46:20;;;;;;;1.42;1.20;;;;;;;14.56;51.20;94111.69;5051171;28;20029;-65
2021/12/25 05:48:48;;;;;;;0.85;0.70;;;;;;;13.94;51.18;94089.41;5050580;28;20020;-65
2021/12/25 05:51:14;;;;;;;0.95;0.90;;;;;;;14.00;51.68;94061.25;5050233;28;20431;-65
2021/12/25 05:53:40;;;;;;;0.73;0.73;;;;;;;14.58;51.42;94108.63;5050421;28;20078;-65
2021/12/25 05:56:05;;;;;;;0.85;0.68;;;;;;;14.73;50.73;94101.66;5050755;28;20029;-65
2021/12/25 05:58:31;;;;;;;1.15;0.90;;;;;;;14.87;50.34;94111.84;5032690;28;20490;-65
2021/12/25 06:00:57;;;;;;;0.88;0.88;;;;;;;14.48;49.91;94032.38;5050335;28;20021;-65
2021/12/25 06:03:22;;;;;;;0.80;0.73;;;;;;;14.93;49.73;94097.81;5050745;28;20100;-65
2021/12/25 06:05:47;;;;;;;1.20;0.98;;;;;;;15.06;49.63;94125.97;5050130;28;20021;-65
2021/12/25 06:08:13;;;;;;;1.10;0.80;;;;;;;14.94;49.30;94128.03;5049940;28;20025;-65
2021/12/25 06:10:40;;;;;;;1.90;0.80;;;;;;;14.92;49.01;94120.34;5031627;28;20022;-65
2021/12/25 06:13:09;;;;;;;1.90;0.50;;;;;;;14.50;49.34;94097.03;5050695;28;20028;-63
2021/12/25 06:15:36;;;;;;;0.80;0.60;;;;;;;14.14;49.64;94092.09;5050644;28;20025;-63
2021/12/25 06:18:02;;;;;;;0.60;0.52;;;;;;;14.70;49.38;94123.78;5050269;28;20419;-63
2021/12/25 06:20:27;;;;;;;1.50;0.60;;;;;;;14.17;49.02;94084.13;5049478;28;20108;-65
2021/12/25 06:22:52;;;;;;;0.70;0.70;;;;;;;14.68;48.97;94108.06;5050006;28;20028;-64
2021/12/25 06:25:18;;;;;;;0.98;0.63;;;;;;;13.37;50.93;94048.09;5050426;28;20051;-63
2021/12/25 06:27:43;;;;;;;0.93;0.65;;;;;;;13.88;51.08;94098.81;5050039;28;20402;-63
2021/12/25 06:30:09;;;;;;;0.52;0.52;;;;;;;14.11;50.34;94088.22;5049597;28;20126;-63
2021/12/25 06:32:35;;;;;;;0.73;0.68;;;;;;;13.74;51.18;94103.84;5050138;28;20025;-63
2021/12/25 06:35:00;;;;;;;0.98;0.80;;;;;;;13.44;51.37;94087.53;5049998;28;20021;-63
2021/12/25 06:37:26;;;;;;;0.90;0.80;;;;;;;13.67;51.52;94107.16;5049353;28;20033;-64
2021/12/25 06:39:51;;;;;;;1.17;0.75;;;;;;;13.66;51.45;94080.75;5048979;28;20048;-63
2021/12/25 06:42:17;;;;;;;1.65;0.98;;;;;;;14.27;50.22;94104.97;5049863;28;20025;-63
2021/12/25 06:44:43;;;;;;;0.93;0.88;;;;;;;13.90;51.29;94115.28;5049900;28;20067;-63
2021/12/25 06:47:09;;;;;;;1.88;0.90;;;;;;;13.71;51.57;94086.59;5049835;28;20487;-63
2021/12/25 06:49:35;;;;;;;1.20;0.80;;;;;;;14.10;50.44;94118.75;5049195;28;20512;-65
2021/12/25 06:52:01;;;;;;;1.00;0.90;;;;;;;14.09;50.86;94121.78;5048714;28;20025;-65
2021/12/25 06:54:27;;;;;;;1.30;0.77;;;;;;;14.25;50.13;94109.13;5049651;28;20060;-65
2021/12/25 06:56:53;;;;;;;7.40;1.25;;;;;;;14.11;50.51;94098.91;5049607;28;20056;-63
2021/12/25 06:59:18;;;;;;;0.75;0.75;;;;;;;13.85;50.66;94080.81;5049005;28;20147;-63
2021/12/25 07:01:44;;;;;;;1.00;0.90;;;;;;;14.16;50.64;94124.59;5049650;28;20543;-65
2021/12/25 07:04:09;;;;;;;0.80;0.80;;;;;;;14.27;50.67;94101.50;5049555;28;20086;-65
2021/12/25 07:06:36;;;;;;;0.73;0.73;;;;;;;13.74;51.09;94093.16;5049222;28;20071;-66
2021/12/25 07:09:04;;;;;;;1.55;0.85;;;;;;;13.83;51.42;94127.72;5048686;28;20096;-64
2021/12/25 07:11:29;;;;;;;2.10;1.10;;;;;;;13.71;51.38;94093.84;5049367;28;20025;-64
2021/12/25 07:13:56;;;;;;;0.85;0.85;;;;;;;14.56;50.20;94118.94;5031739;28;20021;-65
2021/12/25 07:16:21;;;;;;;1.48;0.80;;;;;;;14.61;49.55;94112.53;5049572;28;20021;-65
2021/12/25 07:18:46;;;;;;;0.90;0.70;;;;;;;14.55;49.36;94098.66;5048932;28;20028;-64
2021/12/25 07:21:12;;;;;;;0.70;0.70;;;;;;;14.36;49.07;94086.03;5048406;28;20032;-65
2021/12/25 07:23:38;;;;;;;1.80;0.80;;;;;;;14.31;49.84;94080.97;5049184;28;20029;-65
2021/12/25 07:26:04;;;;;;;0.70;0.70;;;;;;;13.72;51.50;94116.81;5049637;28;20017;-67
2021/12/25 07:28:31;;;;;;;1.55;0.70;;;;;;;13.04;52.45;94040.41;5048822;28;20036;-67
2021/12/25 07:31:00;;;;;;;1.20;0.80;;;;;;;13.69;51.90;94101.44;5049267;28;20489;-65
2021/12/25 07:33:29;;;;;;;3.55;0.80;;;;;;;14.02;50.11;94056.34;5049279;28;20025;-65
2021/12/25 07:35:56;;;;;;;1.05;0.90;;;;;;;14.37;49.62;94113.56;5049113;28;20032;-66
2021/12/25 07:38:22;;;;;;;1.55;1.05;;;;;;;13.66;51.07;94097.56;5049964;28;20021;-65
2021/12/25 07:40:47;;;;;;;0.98;0.80;;;;;;;14.15;51.38;94125.72;5030959;28;20021;-64
2021/12/25 07:43:13;;;;;;;1.73;1.40;;;;;;;14.24;50.41;94091.53;5049238;28;20479;-66
2021/12/25 07:45:39;;;;;;;2.88;1.60;;;;;;;14.31;50.35;94129.88;5049994;28;20032;-65
2021/12/25 07:48:05;;;;;;;0.80;0.70;;;;;;;14.01;50.89;94108.25;5049013;28;20029;-64
2021/12/25 07:50:33;;;;;;;1.17;1.08;;;;;;;14.19;51.09;94110.53;5048919;28;20688;-63
2021/12/25 07:52:59;;;;;;;1.20;1.10;;;;;;;14.14;51.02;94124.19;5048846;28;20041;-63
2021/12/25 07:55:29;;;;;;;2.05;0.88;;;;;;;13.68;51.84;94095.34;5048980;28;20411;-63
2021/12/25 07:57:56;;;;;;;1.40;0.77;;;;;;;13.23;52.97;94106.50;5049063;28;20033;-64
2021/12/25 08:00:21;;;;;;;1.08;0.80;;;;;;;14.53;50.19;94119.63;5030457;28;20025;-64
2021/12/25 08:02:47;;;;;;;0.85;0.85;;;;;;;14.61;50.57;94115.97;5048979;28;20040;-64
2021/12/25 08:05:12;;;;;;;0.98;0.80;;;;;;;14.82;50.10;94127.06;5030959;28;20116;-64
2021/12/25 08:07:38;;;;;;;1.17;1.05;;;;;;;13.70;51.17;94082.38;5048452;28;20079;-63
2021/12/25 08:10:14;;;;;;;1.00;0.90;;;;;;;13.78;51.98;94088.69;5040926;28;20035;-64
2021/12/25 08:12:43;;;;;;;3.20;0.93;;;;;;;14.11;50.92;94060.69;5031003;28;20029;-64
2021/12/25 08:15:10;;;;;;;0.80;0.80;;;;;;;13.99;51.60;94113.19;5048832;28;20025;-63
2021/12/25 08:17:36;;;;;;;0.95;0.82;;;;;;;14.03;50.99;94070.50;5048997;28;20033;-67
2021/12/25 08:20:02;;;;;;;1.00;0.90;;;;;;;14.13;51.25;94128.00;5048177;28;20021;-65
2021/12/25 08:22:28;;;;;;;1.63;0.90;;;;;;;14.07;50.44;94046.47;5048520;28;20514;-67
2021/12/25 08:24:53;;;;;;;0.88;0.77;;;;;;;13.99;51.07;94101.72;5048596;28;20108;-65
2021/12/25 08:27:18;;;;;;;0.90;0.90;;;;;;;14.28;51.37;94119.13;5048505;28;20121;-63
2021/12/25 08:29:44;;;;;;;0.80;0.80;;;;;;;13.57;53.00;94099.69;5047965;28;20037;-64
2021/12/25 08:32:09;;;;;;;1.30;1.20;;;;;;;13.49;52.94;94089.94;5048924;28;20025;-63
2021/12/25 08:34:37;;;;;;;1.50;1.40;;;;;;;14.25;51.90;94122.50;5033345;28;20029;-64
2021/12/25 08:37:02;;;;;;;2.38;0.98;;;;;;;14.12;51.27;94103.13;5052606;28;20025;-61
2021/12/25 08:39:28;;;;;;;1.17;1.13;;;;;;;13.64;52.86;94123.88;5051283;28;20126;-61
2021/12/25 08:42:01;;;;;;;1.25;1.05;;;;;;;14.09;52.30;94122.56;5033925;28;20102;-62
2021/12/25 08:44:37;;;;;;;1.20;1.10;;;;;;;14.77;50.19;94089.09;5034394;28;20032;-62
2021/12/25 08:47:06;;;;;;;1.23;1.02;;;;;;;14.77;50.15;94113.19;5034176;28;20029;-62
2021/12/25 08:49:33;;;;;;;1.50;1.15;;;;;;;14.43;50.41;94094.19;5051216;28;20083;-62
2021/12/25 08:52:07;;;;;;;1.52;1.23;;;;;;;14.49;50.75;94124.16;5033534;28;20126;-62
2021/12/25 08:54:33;;;;;;;1.08;0.98;;;;;;;14.76;49.72;94128.50;5051791;28;20021;-64
2021/12/25 08:57:00;;;;;;;1.35;0.98;;;;;;;14.48;50.51;94125.25;5051744;28;20708;-66
2021/12/25 08:59:27;;;;;;;1.10;1.00;;;;;;;14.59;50.41;94112.09;5033466;28;20029;-66
2021/12/25 09:01:53;;;;;;;2.38;1.40;;;;;;;14.05;51.29;94119.03;5051956;28;20104;-65
2021/12/25 09:04:18;;;;;;;1.52;1.40;;;;;;;14.59;50.23;94138.84;5050716;28;20494;-67
2021/12/25 09:06:43;;;;;;;1.73;1.27;;;;;;;14.22;51.44;94142.69;5051301;28;20032;-67
2021/12/25 09:09:09;;;;;;;1.33;1.23;;;;;;;13.96;52.03;94145.19;5050600;28;20025;-67
2021/12/25 09:11:36;;;;;;;1.20;1.10;;;;;;;14.00;51.72;94143.38;5033501;28;20033;-67
2021/12/25 09:14:03;;;;;;;1.88;1.38;;;;;;;14.40;50.39;94116.31;5051492;28;20068;-65
2021/12/25 09:16:29;;;;;;;1.50;1.20;;;;;;;13.42;53.12;94146.66;5033710;28;20079;-66
2021/12/25 09:18:54;;;;;;;1.73;1.20;;;;;;;13.81;52.16;94114.69;5050967;28;20071;-66
2021/12/25 09:21:20;;;;;;;1.50;1.40;;;;;;;13.64;53.65;94150.59;5050250;28;20104;-66
2021/12/25 09:23:45;;;;;;;1.50;1.40;;;;;;;13.48;53.12;94131.13;5050497;28;20025;-65
2021/12/25 09:26:11;;;;;;;1.73;1.00;;;;;;;13.01;54.21;94156.69;5051334;28;20484;-67
2021/12/25 09:28:37;;;;;;;1.70;1.08;;;;;;;13.41;52.92;94129.09;5033062;28;20021;-66
2021/12/25 09:31:03;;;;;;;1.40;1.08;;;;;;;13.50;52.31;94121.63;5051016;28;20507;-65
2021/12/25 09:33:30;;;;;;;0.90;0.90;;;;;;;13.44;53.04;94130.28;5051321;28;20528;-65
2021/12/25 09:35:56;;;;;;;1.48;1.10;;;;;;;13.30;53.53;94149.41;5033298;28;20017;-65
2021/12/25 09:38:22;;;;;;;1.25;1.02;;;;;;;14.29;51.11;94150.09;5050027;28;20033;-66
2021/12/25 09:40:47;;;;;;;1.25;1.10;;;;;;;13.45;53.47;94143.28;5050348;28;20017;-65
2021/12/25 09:43:14;;;;;;;1.40;1.30;;;;;;;13.59;52.28;94120.69;5050841;28;20464;-65
2021/12/25 09:45:39;;;;;;;1.90;1.00;;;;;;;13.85;52.15;94126.25;5051021;28;20063;-66
2021/12/25 09:48:05;;;;;;;1.38;1.17;;;;;;;12.52;55.48;94147.34;5050608;28;20431;-66
2021/12/25 09:50:31;;;;;;;1.00;1.00;;;;;;;13.74;52.52;94135.94;5050387;28;20050;-64
2021/12/25 09:52:57;;;;;;;1.45;0.98;;;;;;;13.83;52.28;94146.44;5050103;28;20107;-67
2021/12/25 09:55:22;;;;;;;0.90;0.82;;;;;;;13.22;53.59;94139.69;5050529;28;20029;-66
2021/12/25 09:57:48;;;;;;;1.60;1.00;;;;;;;13.91;52.31;94148.91;5032672;28;20140;-65
2021/12/25 10:00:19;;;;;;;0.93;0.93;;;;;;;13.78;51.63;94112.72;5049651;28;20021;-65
2021/12/25 10:02:56;;;;;;;0.98;0.88;;;;;;;13.84;52.08;94119.34;5032950;28;20491;-65
2021/12/25 10:05:34;;;;;;;1.58;0.75;;;;;;;13.61;52.13;94102.41;5050264;28;20036;-64
2021/12/25 10:08:29;;;;;;;1.10;1.00;;;;;;;14.26;50.58;94137.41;5049357;28;20028;-65
2021/12/25 10:11:01;;;;;;;0.95;0.70;;;;;;;13.66;52.20;94124.28;5009541;28;20041;-65
2021/12/25 10:13:35;;;;;;;1.10;1.02;;;;;;;14.95;49.36;94121.56;5050655;28;20017;-64
2021/12/25 10:16:19;;;;;;;1.15;0.90;;;;;;;14.10;51.24;94136.69;5050405;28;20025;-64
2021/12/25 10:18:45;;;;;;;0.93;0.93;;;;;;;14.44;50.67;94133.22;5050000;28;20036;-64
2021/12/25 10:21:19;;;;;;;0.85;0.85;;;;;;;15.03;48.86;94142.72;5049715;28;20025;-65
2021/12/25 10:24:01;;;;;;;0.80;0.70;;;;;;;14.55;49.93;94136.88;5049707;28;20039;-66
2021/12/25 10:26:26;;;;;;;0.70;0.65;;;;;;;14.18;50.55;94138.41;5050561;28;20033;-69
2021/12/25 10:28:51;;;;;;;0.75;0.75;;;;;;;14.79;48.91;94143.06;5050168;28;20522;-67
2021/12/25 10:31:29;;;;;;;1.30;0.80;;;;;;;14.51;49.35;94103.94;5050059;28;20116;-67
2021/12/25 10:33:54;;;;;;;2.00;0.75;;;;;;;14.84;49.43;94126.69;5032504;28;20488;-69
2021/12/25 10:36:26;;;;;;;1.80;0.98;;;;;;;14.60;49.86;94105.63;5049755;28;20025;-67
2021/12/25 10:39:10;;;;;;;1.48;0.90;;;;;;;14.72;49.22;94133.00;5049079;28;20029;-67
2021/12/25 10:41:39;;;;;;;1.58;0.80;;;;;;;13.98;51.23;94130.34;5049819;28;20429;-67
2021/12/25 10:44:11;;;;;;;0.70;0.70;;;;;;;14.97;48.99;94124.66;5032088;28;20033;-67
2021/12/25 10:46:57;;;;;;;2.10;1.65;;;;;;;14.26;50.74;94146.22;5049731;28;20025;-66
2021/12/25 10:49:30;;;;;;;1.65;1.15;;;;;;;13.90;51.38;94099.22;5049132;28;20423;-67
2021/12/25 10:52:08;;;;;;;1.63;0.68;;;;;;;13.52;52.17;94114.06;5031491;28;20029;-67
2021/12/25 10:54:37;;;;;;;1.33;0.90;;;;;;;14.70;50.13;94139.84;5049188;28;20087;-66
2021/12/25 10:57:03;;;;;;;0.68;0.68;;;;;;;14.21;50.69;94109.03;5049257;28;20021;-69
2021/12/25 10:59:42;;;;;;;1.92;0.75;;;;;;;13.59;52.81;94142.84;5048808;28;20075;-67
2021/12/25 11:02:07;;;;;;;0.68;0.68;;;;;;;12.88;53.54;94069.78;5049599;28;20025;-67
2021/12/25 11:04:36;;;;;;;0.70;0.70;;;;;;;13.34;52.51;94061.34;5049578;28;20024;-69
2021/12/25 11:07:14;;;;;;;0.55;0.55;;;;;;;13.78;52.44;94126.88;5048998;28;20031;-69
2021/12/25 11:10:00;;;;;;;1.08;0.70;;;;;;;13.64;52.23;94133.78;5048373;28;20025;-69
2021/12/25 11:12:25;;;;;;;0.95;0.75;;;;;;;14.26;51.16;94145.44;5049240;28;20052;-66
2021/12/25 11:14:51;;;;;;;0.90;0.80;;;;;;;14.29;50.86;94129.47;5031577;28;20079;-66
2021/12/25 11:17:26;;;;;;;1.45;0.90;;;;;;;14.51;50.40;94128.00;5049414;28;20082;-66
2021/12/25 11:20:00;;;;;;;0.80;0.80;;;;;;;13.96;51.46;94118.44;5048973;28;20192;-66
2021/12/25 11:22:53;;;;;;;1.27;0.80;;;;;;;14.56;50.06;94138.44;5049413;28;20025;-66
2021/12/25 11:25:23;;;;;;;1.40;0.95;;;;;;;14.34;50.79;94141.78;5044114;28;20029;-66
2021/12/25 11:27:50;;;;;;;0.68;0.68;;;;;;;13.75;51.98;94110.75;5049151;28;20033;-67
2021/12/25 11:30:18;;;;;;;0.75;0.70;;;;;;;13.98;51.88;94132.25;5048755;28;20144;-66
2021/12/25 11:32:45;;;;;;;1.88;0.80;;;;;;;13.51;52.44;94131.22;5049247;28;20059;-67
2021/12/25 11:35:11;;;;;;;0.95;0.70;;;;;;;13.73;52.24;94121.03;5049427;28;20131;-66
2021/12/25 11:37:37;;;;;;;1.42;0.90;;;;;;;13.20;53.23;94113.25;5048906;28;20033;-67
2021/12/25 11:40:06;;;;;;;1.20;0.75;;;;;;;14.14;51.51;94132.97;5048217;28;20025;-67
2021/12/25 11:42:32;;;;;;;1.40;0.80;;;;;;;13.49;53.33;94117.41;5049574;28;20021;-66
2021/12/25 11:45:17;;;;;;;1.10;0.90;;;;;;;13.78;51.59;94104.72;5049158;28;20556;-66
2021/12/25 11:47:46;;;;;;;0.70;0.70;;;;;;;13.31;52.88;94113.56;5031208;28;20029;-66
2021/12/25 11:50:21;;;;;;;1.10;0.90;;;;;;;13.77;52.52;94122.66;5048248;28;20032;-66
2021/12/25 11:53:05;;;;;;;1.35;1.25;;;;;;;14.57;50.51;94118.56;5048416;28;20128;-65
2021/12/25 11:58:40;;;;;;;1.38;1.00;;;;;;;14.11;50.79;94100.81;5040946;28;20029;-65
2021/12/25 12:01:39;;;;;;;1.35;0.77;;;;;;;14.00;51.73;94114.72;5048571;28;20478;-67
2021/12/25 12:04:11;;;;;;;1.23;1.10;;;;;;;13.97;52.05;94115.44;5048597;28;20463;-66
2021/12/25 12:06:45;;;;;;;1.00;0.90;;;;;;;13.62;52.91;94115.44;5048992;28;20517;-67
2021/12/25 12:09:19;;;;;;;0.75;0.73;;;;;;;13.67;52.53;94111.72;5049647;28;20033;-64
2021/12/25 12:11:50;;;;;;;1.20;1.00;;;;;;;13.09;53.63;94101.56;5052752;28;20049;-64
2021/12/25 12:14:26;;;;;;;0.80;0.80;;;;;;;13.66;52.87;94112.81;5034849;28;20467;-64
2021/12/25 12:17:06;;;;;;;1.08;0.90;;;;;;;14.74;50.27;94090.59;5053156;28;20123;-63
2021/12/25 12:19:32;;;;;;;1.35;1.02;;;;;;;14.13;51.57;94103.91;5052155;28;20074;-62
2021/12/25 12:21:59;;;;;;;1.30;1.05;;;;;;;13.80;51.84;94107.81;5052316;28;20029;-64
2021/12/25 12:27:01;;;;;;;2.17;1.00;;;;;;;13.05;54.12;94100.72;5052135;28;20103;-64
2021/12/25 12:29:39;;;;;;;1.63;1.30;;;;;;;13.42;53.97;94122.63;5033700;28;20536;-64
2021/12/25 12:32:20;;;;;;;63.97;45.38;;;;;;;14.23;52.30;94122.09;5051991;28;20506;-68
2021/12/25 12:34:47;;;;;;;16.63;13.93;;;;;;;14.12;52.26;94108.47;5034550;28;20135;-66
2021/12/25 12:37:18;;;;;;;6.88;6.22;;;;;;;14.22;51.41;94136.56;5034010;28;20040;-66
2021/12/25 12:39:53;;;;;;;5.65;4.97;;;;;;;13.82;53.00;94126.16;5051008;28;20573;-68
2021/12/25 12:42:19;;;;;;;2.95;2.65;;;;;;;14.13;51.88;94123.41;5051541;28;20063;-67
2021/12/25 12:44:48;;;;;;;1.17;0.90;;;;;;;13.76;52.15;94105.03;5052084;28;20033;-66
2021/12/25 12:47:17;;;;;;;1.48;1.33;;;;;;;14.35;51.63;94138.00;5051659;28;20025;-63
2021/12/25 12:49:45;;;;;;;1.20;1.10;;;;;;;13.16;54.36;94141.03;5051647;28;20083;-62
2021/12/25 12:52:27;;;;;;;1.40;1.08;;;;;;;13.71;52.67;94117.91;5051565;28;20029;-63
2021/12/25 12:55:08;;;;;;;1.42;1.33;;;;;;;14.18;52.10;94139.19;5051866;28;20360;-63
2021/12/25 12:57:36;;;;;;;7.15;6.45;;;;;;;14.04;54.69;94150.34;5051675;28;20036;-60